sensor_id;sensor_type;location;lat;lon;timestamp;temperature;humidity
31979;DHT22;18502;43.574;1.276;2023-02-28T00:00:49;0.20;99.90
31979;DHT22;18502;43.574;1.276;2023-02-28T00:03:15;0.10;99.90
31979;DHT22;18502;43.574;1.276;2023-02-28T00:05:41;0.10;99.90
31979;DHT22;18502;43.574;1.276;2023-02-28T00:08:07;0.10;99.90
31979;DHT22;18502;43.574;1.276;2023-02-28T00:10:33;0.20;99.90
31979;DHT22;18502;43.574;1.276;2023-02-28T00:13:03;0.10;99.90
31979;DHT22;18502;43.574;1.276;2023-02-28T00:15:29;0.10;99.90
31979;DHT22;18502;43.574;1.276;2023-02-28T00:17:55;0.20;99.90
31979;DHT22;18502;43.574;1.276;2023-02-28T00:20:21;0.20;99.90
31979;DHT22;18502;43.574;1.276;2023-02-28T00:22:49;0.10;99.90
31979;DHT22;18502;43.574;1.276;2023-02-28T00:25:18;0.10;99.90
31979;DHT22;18502;43.574;1.276;2023-02-28T00:27:45;0.20;99.90
31979;DHT22;18502;43.574;1.276;2023-02-28T00:30:17;0.20;99.90
31979;DHT22;18502;43.574;1.276;2023-02-28T00:32:43;0.20;99.90
31979;DHT22;18502;43.574;1.276;2023-02-28T00:35:10;0.20;99.90
31979;DHT22;18502;43.574;1.276;2023-02-28T00:37:36;0.20;99.90
31979;DHT22;18502;43.574;1.276;2023-02-28T00:40:02;0.10;99.90
31979;DHT22;18502;43.574;1.276;2023-02-28T00:42:30;0.10;99.90
31979;DHT22;18502;43.574;1.276;2023-02-28T00:44:56;0.00;99.90
31979;DHT22;18502;43.574;1.276;2023-02-28T00:50:19;0.00;99.90
31979;DHT22;18502;43.574;1.276;2023-02-28T00:52:46;0.10;99.90
31979;DHT22;18502;43.574;1.276;2023-02-28T00:55:12;0.10;99.90
31979;DHT22;18502;43.574;1.276;2023-02-28T00:57:37;0.10;99.90
31979;DHT22;18502;43.574;1.276;2023-02-28T01:00:04;0.10;99.90
31979;DHT22;18502;43.574;1.276;2023-02-28T01:02:30;0.20;99.90
31979;DHT22;18502;43.574;1.276;2023-02-28T01:04:56;0.30;99.90
31979;DHT22;18502;43.574;1.276;2023-02-28T01:07:23;0.30;99.90
31979;DHT22;18502;43.574;1.276;2023-02-28T01:09:48;0.30;99.90
31979;DHT22;18502;43.574;1.276;2023-02-28T01:12:14;0.30;99.90
31979;DHT22;18502;43.574;1.276;2023-02-28T01:14:40;0.30;99.90
31979;DHT22;18502;43.574;1.276;2023-02-28T01:17:06;0.40;99.90
31979;DHT22;18502;43.574;1.276;2023-02-28T01:19:32;0.40;99.90
31979;DHT22;18502;43.574;1.276;2023-02-28T01:22:01;0.40;99.90
31979;DHT22;18502;43.574;1.276;2023-02-28T01:24:27;0.40;99.90
31979;DHT22;18502;43.574;1.276;2023-02-28T01:26:53;0.40;99.90
31979;DHT22;18502;43.574;1.276;2023-02-28T01:29:19;0.40;99.90
31979;DHT22;18502;43.574;1.276;2023-02-28T01:31:44;0.50;99.90
31979;DHT22;18502;43.574;1.276;2023-02-28T01:34:10;0.50;99.90
31979;DHT22;18502;43.574;1.276;2023-02-28T01:36:35;0.50;99.90
31979;DHT22;18502;43.574;1.276;2023-02-28T01:39:02;0.60;99.90
31979;DHT22;18502;43.574;1.276;2023-02-28T01:41:30;0.60;99.90
31979;DHT22;18502;43.574;1.276;2023-02-28T01:47:03;0.60;99.90
31979;DHT22;18502;43.574;1.276;2023-02-28T01:49:29;0.60;99.90
31979;DHT22;18502;43.574;1.276;2023-02-28T01:51:56;0.70;99.90
31979;DHT22;18502;43.574;1.276;2023-02-28T01:54:25;0.70;99.90
31979;DHT22;18502;43.574;1.276;2023-02-28T01:56:57;0.70;99.90
31979;DHT22;18502;43.574;1.276;2023-02-28T01:59:30;0.80;99.90
31979;DHT22;18502;43.574;1.276;2023-02-28T02:01:57;0.80;99.90
31979;DHT22;18502;43.574;1.276;2023-02-28T02:04:27;0.80;99.90
31979;DHT22;18502;43.574;1.276;2023-02-28T02:06:58;0.80;99.90
31979;DHT22;18502;43.574;1.276;2023-02-28T02:09:24;0.80;99.90
31979;DHT22;18502;43.574;1.276;2023-02-28T02:11:50;0.80;99.90
31979;DHT22;18502;43.574;1.276;2023-02-28T02:17:31;0.90;99.90
31979;DHT22;18502;43.574;1.276;2023-02-28T02:23:07;0.90;99.90
31979;DHT22;18502;43.574;1.276;2023-02-28T02:25:49;0.90;99.90
31979;DHT22;18502;43.574;1.276;2023-02-28T02:29:16;0.90;99.90
31979;DHT22;18502;43.574;1.276;2023-02-28T02:39:18;0.90;99.90
31979;DHT22;18502;43.574;1.276;2023-02-28T02:41:54;0.90;99.90
31979;DHT22;18502;43.574;1.276;2023-02-28T02:44:40;0.90;99.90
31979;DHT22;18502;43.574;1.276;2023-02-28T02:47:15;0.90;99.90
31979;DHT22;18502;43.574;1.276;2023-02-28T02:49:47;0.90;99.90
31979;DHT22;18502;43.574;1.276;2023-02-28T02:52:16;0.90;99.90
31979;DHT22;18502;43.574;1.276;2023-02-28T02:54:45;1.00;99.90
31979;DHT22;18502;43.574;1.276;2023-02-28T02:57:18;0.90;99.90
31979;DHT22;18502;43.574;1.276;2023-02-28T02:59:45;1.00;99.90
31979;DHT22;18502;43.574;1.276;2023-02-28T03:02:13;1.00;99.90
31979;DHT22;18502;43.574;1.276;2023-02-28T03:04:43;1.00;99.90
31979;DHT22;18502;43.574;1.276;2023-02-28T03:07:11;1.00;99.90
31979;DHT22;18502;43.574;1.276;2023-02-28T03:09:36;1.00;99.90
31979;DHT22;18502;43.574;1.276;2023-02-28T03:12:03;1.00;99.90
31979;DHT22;18502;43.574;1.276;2023-02-28T03:17:54;1.00;99.90
31979;DHT22;18502;43.574;1.276;2023-02-28T03:20:15;1.00;99.90
31979;DHT22;18502;43.574;1.276;2023-02-28T03:22:53;1.00;99.90
31979;DHT22;18502;43.574;1.276;2023-02-28T03:25:31;1.00;99.90
31979;DHT22;18502;43.574;1.276;2023-02-28T03:28:09;1.00;99.90
31979;DHT22;18502;43.574;1.276;2023-02-28T03:30:47;1.00;99.90
31979;DHT22;18502;43.574;1.276;2023-02-28T03:33:23;1.00;99.90
31979;DHT22;18502;43.574;1.276;2023-02-28T03:36:02;1.00;99.90
31979;DHT22;18502;43.574;1.276;2023-02-28T03:43:39;1.00;99.90
31979;DHT22;18502;43.574;1.276;2023-02-28T03:46:07;1.00;99.90
31979;DHT22;18502;43.574;1.276;2023-02-28T03:48:48;0.90;99.90
31979;DHT22;18502;43.574;1.276;2023-02-28T03:51:15;1.00;99.90
31979;DHT22;18502;43.574;1.276;2023-02-28T03:53:46;1.00;99.90
31979;DHT22;18502;43.574;1.276;2023-02-28T03:56:24;0.90;99.90
31979;DHT22;18502;43.574;1.276;2023-02-28T03:59:12;0.90;99.90
31979;DHT22;18502;43.574;1.276;2023-02-28T04:01:47;0.90;99.90
31979;DHT22;18502;43.574;1.276;2023-02-28T04:04:14;0.80;99.90
31979;DHT22;18502;43.574;1.276;2023-02-28T04:06:41;0.80;99.90
31979;DHT22;18502;43.574;1.276;2023-02-28T04:09:09;0.70;99.90
31979;DHT22;18502;43.574;1.276;2023-02-28T04:11:40;0.60;99.90
31979;DHT22;18502;43.574;1.276;2023-02-28T04:14:08;0.50;99.90
31979;DHT22;18502;43.574;1.276;2023-02-28T04:16:36;0.50;99.90
31979;DHT22;18502;43.574;1.276;2023-02-28T04:19:04;0.40;99.90
31979;DHT22;18502;43.574;1.276;2023-02-28T04:21:35;0.30;99.90
31979;DHT22;18502;43.574;1.276;2023-02-28T04:24:01;0.30;99.90
31979;DHT22;18502;43.574;1.276;2023-02-28T04:26:31;0.20;99.90
31979;DHT22;18502;43.574;1.276;2023-02-28T04:28:58;0.20;99.90
31979;DHT22;18502;43.574;1.276;2023-02-28T04:31:23;0.10;99.90
31979;DHT22;18502;43.574;1.276;2023-02-28T04:33:49;0.10;99.90
31979;DHT22;18502;43.574;1.276;2023-02-28T04:36:15;0.00;99.90
31979;DHT22;18502;43.574;1.276;2023-02-28T04:38:43;0.10;99.90
31979;DHT22;18502;43.574;1.276;2023-02-28T04:41:09;-0.10;99.90
31979;DHT22;18502;43.574;1.276;2023-02-28T04:43:35;-0.20;99.90
31979;DHT22;18502;43.574;1.276;2023-02-28T04:46:02;-0.10;99.90
31979;DHT22;18502;43.574;1.276;2023-02-28T04:48:30;-0.20;99.90
31979;DHT22;18502;43.574;1.276;2023-02-28T04:51:03;-0.40;99.90
31979;DHT22;18502;43.574;1.276;2023-02-28T04:53:29;-0.50;99.90
31979;DHT22;18502;43.574;1.276;2023-02-28T04:55:57;-0.50;99.90
31979;DHT22;18502;43.574;1.276;2023-02-28T04:58:23;-0.60;99.90
31979;DHT22;18502;43.574;1.276;2023-02-28T05:00:50;-0.70;99.90
31979;DHT22;18502;43.574;1.276;2023-02-28T05:03:15;-0.50;99.90
31979;DHT22;18502;43.574;1.276;2023-02-28T05:05:41;-0.60;99.90
31979;DHT22;18502;43.574;1.276;2023-02-28T05:08:07;-0.90;99.90
31979;DHT22;18502;43.574;1.276;2023-02-28T05:10:32;-0.80;99.90
31979;DHT22;18502;43.574;1.276;2023-02-28T05:12:58;-0.80;99.90
31979;DHT22;18502;43.574;1.276;2023-02-28T05:15:24;-1.00;99.90
31979;DHT22;18502;43.574;1.276;2023-02-28T05:17:50;-1.20;99.90
31979;DHT22;18502;43.574;1.276;2023-02-28T05:20:16;-0.90;99.90
31979;DHT22;18502;43.574;1.276;2023-02-28T05:22:43;-0.90;99.90
31979;DHT22;18502;43.574;1.276;2023-02-28T05:25:15;-1.00;99.90
31979;DHT22;18502;43.574;1.276;2023-02-28T05:27:41;-0.80;99.90
31979;DHT22;18502;43.574;1.276;2023-02-28T05:30:08;-1.00;99.90
31979;DHT22;18502;43.574;1.276;2023-02-28T05:32:37;-1.00;99.90
31979;DHT22;18502;43.574;1.276;2023-02-28T05:35:03;-1.10;99.90
31979;DHT22;18502;43.574;1.276;2023-02-28T05:37:29;-1.30;99.90
31979;DHT22;18502;43.574;1.276;2023-02-28T05:39:54;-1.20;99.90
31979;DHT22;18502;43.574;1.276;2023-02-28T05:42:20;-1.30;99.90
31979;DHT22;18502;43.574;1.276;2023-02-28T05:44:46;-1.40;99.90
31979;DHT22;18502;43.574;1.276;2023-02-28T05:47:12;-1.30;99.90
31979;DHT22;18502;43.574;1.276;2023-02-28T05:49:41;-1.10;99.90
31979;DHT22;18502;43.574;1.276;2023-02-28T05:52:07;-1.10;99.90
31979;DHT22;18502;43.574;1.276;2023-02-28T05:54:33;-1.10;99.90
31979;DHT22;18502;43.574;1.276;2023-02-28T05:56:59;-1.10;99.90
31979;DHT22;18502;43.574;1.276;2023-02-28T05:59:24;-1.00;99.90
31979;DHT22;18502;43.574;1.276;2023-02-28T06:01:50;-1.10;99.90
31979;DHT22;18502;43.574;1.276;2023-02-28T06:04:20;-1.10;99.90
31979;DHT22;18502;43.574;1.276;2023-02-28T06:06:49;-1.10;99.90
31979;DHT22;18502;43.574;1.276;2023-02-28T06:09:15;-1.20;99.90
31979;DHT22;18502;43.574;1.276;2023-02-28T06:11:41;-1.30;99.90
31979;DHT22;18502;43.574;1.276;2023-02-28T06:14:09;-1.30;99.90
31979;DHT22;18502;43.574;1.276;2023-02-28T06:16:38;-1.40;99.90
31979;DHT22;18502;43.574;1.276;2023-02-28T06:19:04;-1.30;99.90
31979;DHT22;18502;43.574;1.276;2023-02-28T06:21:30;-1.40;99.90
31979;DHT22;18502;43.574;1.276;2023-02-28T06:23:57;-1.30;99.90
31979;DHT22;18502;43.574;1.276;2023-02-28T06:26:23;-1.30;99.90
31979;DHT22;18502;43.574;1.276;2023-02-28T06:28:49;-1.40;99.90
31979;DHT22;18502;43.574;1.276;2023-02-28T06:31:16;-1.40;99.90
31979;DHT22;18502;43.574;1.276;2023-02-28T06:33:44;-1.50;99.90
31979;DHT22;18502;43.574;1.276;2023-02-28T06:36:12;-1.40;99.90
31979;DHT22;18502;43.574;1.276;2023-02-28T06:38:39;-1.40;99.90
31979;DHT22;18502;43.574;1.276;2023-02-28T06:41:06;-1.30;99.90
31979;DHT22;18502;43.574;1.276;2023-02-28T06:43:35;-1.40;99.90
31979;DHT22;18502;43.574;1.276;2023-02-28T06:46:03;-1.20;99.90
31979;DHT22;18502;43.574;1.276;2023-02-28T06:48:29;-1.40;99.90
31979;DHT22;18502;43.574;1.276;2023-02-28T06:51:07;-1.40;99.90
31979;DHT22;18502;43.574;1.276;2023-02-28T06:53:33;-1.40;99.90
31979;DHT22;18502;43.574;1.276;2023-02-28T06:55:59;-1.40;99.90
31979;DHT22;18502;43.574;1.276;2023-02-28T06:58:25;-1.30;99.90
31979;DHT22;18502;43.574;1.276;2023-02-28T07:00:51;-1.30;99.90
31979;DHT22;18502;43.574;1.276;2023-02-28T07:03:18;-1.30;99.90
31979;DHT22;18502;43.574;1.276;2023-02-28T07:05:44;-1.40;99.90
31979;DHT22;18502;43.574;1.276;2023-02-28T07:08:10;-1.40;99.90
31979;DHT22;18502;43.574;1.276;2023-02-28T07:10:39;-1.40;99.90
31979;DHT22;18502;43.574;1.276;2023-02-28T07:13:07;-1.40;99.90
31979;DHT22;18502;43.574;1.276;2023-02-28T07:15:33;-1.30;99.90
31979;DHT22;18502;43.574;1.276;2023-02-28T07:17:58;-1.30;99.90
31979;DHT22;18502;43.574;1.276;2023-02-28T07:20:24;-1.50;99.90
31979;DHT22;18502;43.574;1.276;2023-02-28T07:22:50;-1.40;99.90
31979;DHT22;18502;43.574;1.276;2023-02-28T07:25:25;-1.30;99.90
31979;DHT22;18502;43.574;1.276;2023-02-28T07:27:51;-0.80;99.90
31979;DHT22;18502;43.574;1.276;2023-02-28T07:30:18;-0.70;99.90
31979;DHT22;18502;43.574;1.276;2023-02-28T07:32:44;-0.70;99.90
31979;DHT22;18502;43.574;1.276;2023-02-28T07:35:10;-0.40;99.90
31979;DHT22;18502;43.574;1.276;2023-02-28T07:37:35;-0.30;99.90
31979;DHT22;18502;43.574;1.276;2023-02-28T07:40:06;-0.20;99.90
31979;DHT22;18502;43.574;1.276;2023-02-28T07:42:34;-0.10;99.90
31979;DHT22;18502;43.574;1.276;2023-02-28T07:45:00;0.10;99.90
31979;DHT22;18502;43.574;1.276;2023-02-28T07:47:26;0.30;99.90
31979;DHT22;18502;43.574;1.276;2023-02-28T07:49:52;0.30;99.90
31979;DHT22;18502;43.574;1.276;2023-02-28T07:52:18;0.20;99.90
31979;DHT22;18502;43.574;1.276;2023-02-28T07:54:43;0.30;99.90
31979;DHT22;18502;43.574;1.276;2023-02-28T07:57:09;0.30;99.90
31979;DHT22;18502;43.574;1.276;2023-02-28T07:59:35;0.50;99.90
31979;DHT22;18502;43.574;1.276;2023-02-28T08:02:00;0.60;99.90
31979;DHT22;18502;43.574;1.276;2023-02-28T08:04:26;0.70;99.90
31979;DHT22;18502;43.574;1.276;2023-02-28T08:06:52;0.90;99.90
31979;DHT22;18502;43.574;1.276;2023-02-28T08:09:18;0.90;99.90
31979;DHT22;18502;43.574;1.276;2023-02-28T08:11:44;1.10;99.90
31979;DHT22;18502;43.574;1.276;2023-02-28T08:14:10;1.20;99.90
31979;DHT22;18502;43.574;1.276;2023-02-28T08:16:36;1.20;99.90
31979;DHT22;18502;43.574;1.276;2023-02-28T08:19:02;1.40;99.90
31979;DHT22;18502;43.574;1.276;2023-02-28T08:21:28;1.50;99.90
31979;DHT22;18502;43.574;1.276;2023-02-28T08:23:53;1.60;99.90
31979;DHT22;18502;43.574;1.276;2023-02-28T08:26:20;1.60;99.90
31979;DHT22;18502;43.574;1.276;2023-02-28T08:28:46;1.70;99.90
31979;DHT22;18502;43.574;1.276;2023-02-28T08:31:14;1.80;99.90
31979;DHT22;18502;43.574;1.276;2023-02-28T08:33:40;2.00;99.90
31979;DHT22;18502;43.574;1.276;2023-02-28T08:36:08;2.10;99.90
31979;DHT22;18502;43.574;1.276;2023-02-28T08:38:34;2.20;99.90
31979;DHT22;18502;43.574;1.276;2023-02-28T08:41:04;2.30;99.90
31979;DHT22;18502;43.574;1.276;2023-02-28T08:43:36;2.40;99.90
31979;DHT22;18502;43.574;1.276;2023-02-28T08:46:02;2.40;99.90
31979;DHT22;18502;43.574;1.276;2023-02-28T08:48:30;2.30;99.90
31979;DHT22;18502;43.574;1.276;2023-02-28T08:50:57;2.20;99.90
31979;DHT22;18502;43.574;1.276;2023-02-28T08:53:23;2.40;99.90
31979;DHT22;18502;43.574;1.276;2023-02-28T08:55:59;2.60;99.90
31979;DHT22;18502;43.574;1.276;2023-02-28T08:58:26;2.80;99.90
31979;DHT22;18502;43.574;1.276;2023-02-28T09:00:52;2.90;99.90
31979;DHT22;18502;43.574;1.276;2023-02-28T09:03:17;3.00;99.90
31979;DHT22;18502;43.574;1.276;2023-02-28T09:06:13;3.30;99.90
31979;DHT22;18502;43.574;1.276;2023-02-28T09:08:39;3.30;99.90
31979;DHT22;18502;43.574;1.276;2023-02-28T09:11:05;3.70;99.90
31979;DHT22;18502;43.574;1.276;2023-02-28T09:13:32;3.70;99.90
31979;DHT22;18502;43.574;1.276;2023-02-28T09:16:00;3.90;99.90
31979;DHT22;18502;43.574;1.276;2023-02-28T09:18:26;3.90;99.90
31979;DHT22;18502;43.574;1.276;2023-02-28T09:20:52;3.80;99.90
31979;DHT22;18502;43.574;1.276;2023-02-28T09:23:18;3.80;99.90
31979;DHT22;18502;43.574;1.276;2023-02-28T09:25:48;3.90;99.90
31979;DHT22;18502;43.574;1.276;2023-02-28T09:28:15;3.90;99.90
31979;DHT22;18502;43.574;1.276;2023-02-28T09:30:41;4.70;99.90
31979;DHT22;18502;43.574;1.276;2023-02-28T09:33:07;5.90;99.90
31979;DHT22;18502;43.574;1.276;2023-02-28T09:35:33;5.10;99.90
31979;DHT22;18502;43.574;1.276;2023-02-28T09:37:59;4.80;99.90
31979;DHT22;18502;43.574;1.276;2023-02-28T09:40:25;5.30;99.90
31979;DHT22;18502;43.574;1.276;2023-02-28T09:42:53;6.30;99.90
31979;DHT22;18502;43.574;1.276;2023-02-28T09:47:51;8.20;99.90
31979;DHT22;18502;43.574;1.276;2023-02-28T09:52:52;8.00;99.90
31979;DHT22;18502;43.574;1.276;2023-02-28T09:56:09;8.70;99.90
31979;DHT22;18502;43.574;1.276;2023-02-28T09:58:23;10.40;99.90
31979;DHT22;18502;43.574;1.276;2023-02-28T10:01:12;11.90;98.40
31979;DHT22;18502;43.574;1.276;2023-02-28T10:06:49;12.30;83.00
31979;DHT22;18502;43.574;1.276;2023-02-28T10:09:24;11.20;84.40
31979;DHT22;18502;43.574;1.276;2023-02-28T10:11:57;11.80;78.10
31979;DHT22;18502;43.574;1.276;2023-02-28T10:14:28;11.30;80.60
31979;DHT22;18502;43.574;1.276;2023-02-28T10:17:27;10.60;78.50
31979;DHT22;18502;43.574;1.276;2023-02-28T10:22:38;10.50;72.40
31979;DHT22;18502;43.574;1.276;2023-02-28T10:25:19;10.00;73.50
31979;DHT22;18502;43.574;1.276;2023-02-28T10:27:45;10.60;76.10
31979;DHT22;18502;43.574;1.276;2023-02-28T10:30:11;10.00;75.10
31979;DHT22;18502;43.574;1.276;2023-02-28T10:32:39;10.50;77.60
31979;DHT22;18502;43.574;1.276;2023-02-28T10:37:41;8.10;81.30
31979;DHT22;18502;43.574;1.276;2023-02-28T10:40:29;7.80;83.00
31979;DHT22;18502;43.574;1.276;2023-02-28T10:45:27;7.40;82.30
31979;DHT22;18502;43.574;1.276;2023-02-28T10:47:57;11.30;76.00
31979;DHT22;18502;43.574;1.276;2023-02-28T10:55:33;13.30;62.40
31979;DHT22;18502;43.574;1.276;2023-02-28T10:57:58;12.30;59.40
31979;DHT22;18502;43.574;1.276;2023-02-28T11:00:25;13.60;58.80
31979;DHT22;18502;43.574;1.276;2023-02-28T11:02:57;14.60;61.00
31979;DHT22;18502;43.574;1.276;2023-02-28T11:05:31;15.30;55.20
31979;DHT22;18502;43.574;1.276;2023-02-28T11:08:12;13.40;55.00
31979;DHT22;18502;43.574;1.276;2023-02-28T11:10:39;14.30;53.90
31979;DHT22;18502;43.574;1.276;2023-02-28T11:13:05;15.10;52.00
31979;DHT22;18502;43.574;1.276;2023-02-28T11:15:33;15.00;50.30
31979;DHT22;18502;43.574;1.276;2023-02-28T11:18:06;12.00;53.30
31979;DHT22;18502;43.574;1.276;2023-02-28T11:20:40;13.20;54.20
31979;DHT22;18502;43.574;1.276;2023-02-28T11:23:12;12.80;53.00
31979;DHT22;18502;43.574;1.276;2023-02-28T11:25:39;12.60;55.10
31979;DHT22;18502;43.574;1.276;2023-02-28T11:28:23;11.50;57.70
31979;DHT22;18502;43.574;1.276;2023-02-28T11:33:31;14.30;55.60
31979;DHT22;18502;43.574;1.276;2023-02-28T11:36:00;17.10;49.50
31979;DHT22;18502;43.574;1.276;2023-02-28T11:38:27;14.50;50.50
31979;DHT22;18502;43.574;1.276;2023-02-28T11:43:48;9.70;52.10
31979;DHT22;18502;43.574;1.276;2023-02-28T11:46:48;9.40;54.30
31979;DHT22;18502;43.574;1.276;2023-02-28T11:55:11;9.10;56.40
31979;DHT22;18502;43.574;1.276;2023-02-28T12:09:00;8.90;52.70
31979;DHT22;18502;43.574;1.276;2023-02-28T12:17:27;7.40;58.90
31979;DHT22;18502;43.574;1.276;2023-02-28T12:25:50;8.20;54.90
31979;DHT22;18502;43.574;1.276;2023-02-28T12:28:24;8.40;55.90
31979;DHT22;18502;43.574;1.276;2023-02-28T12:31:00;8.70;53.70
31979;DHT22;18502;43.574;1.276;2023-02-28T12:33:31;8.20;55.60
31979;DHT22;18502;43.574;1.276;2023-02-28T12:36:03;8.10;53.40
31979;DHT22;18502;43.574;1.276;2023-02-28T12:39:01;8.50;55.20
31979;DHT22;18502;43.574;1.276;2023-02-28T12:41:39;8.30;54.80
31979;DHT22;18502;43.574;1.276;2023-02-28T12:46:57;8.50;56.70
31979;DHT22;18502;43.574;1.276;2023-02-28T12:49:42;8.50;56.50
31979;DHT22;18502;43.574;1.276;2023-02-28T12:52:11;7.60;56.30
31979;DHT22;18502;43.574;1.276;2023-02-28T12:54:53;8.00;57.80
31979;DHT22;18502;43.574;1.276;2023-02-28T12:57:41;8.50;55.90
31979;DHT22;18502;43.574;1.276;2023-02-28T13:00:23;8.90;55.30
31979;DHT22;18502;43.574;1.276;2023-02-28T13:10:48;8.70;54.30
31979;DHT22;18502;43.574;1.276;2023-02-28T13:13:29;8.30;53.60
31979;DHT22;18502;43.574;1.276;2023-02-28T13:18:35;7.10;53.40
31979;DHT22;18502;43.574;1.276;2023-02-28T13:21:10;7.20;53.30
31979;DHT22;18502;43.574;1.276;2023-02-28T13:34:32;7.70;51.90
31979;DHT22;18502;43.574;1.276;2023-02-28T13:47:48;14.50;33.30
31979;DHT22;18502;43.574;1.276;2023-02-28T13:55:45;12.90;36.20
31979;DHT22;18502;43.574;1.276;2023-02-28T14:06:32;17.50;29.80
31979;DHT22;18502;43.574;1.276;2023-02-28T14:11:32;15.50;29.50
31979;DHT22;18502;43.574;1.276;2023-02-28T14:14:00;14.70;30.50
31979;DHT22;18502;43.574;1.276;2023-02-28T14:16:39;18.10;29.40
31979;DHT22;18502;43.574;1.276;2023-02-28T14:19:12;12.30;33.10
31979;DHT22;18502;43.574;1.276;2023-02-28T14:22:04;10.20;35.30
31979;DHT22;18502;43.574;1.276;2023-02-28T14:32:43;8.80;42.30
31979;DHT22;18502;43.574;1.276;2023-02-28T14:37:51;7.80;43.40
31979;DHT22;18502;43.574;1.276;2023-02-28T14:40:28;7.90;44.90
31979;DHT22;18502;43.574;1.276;2023-02-28T14:43:00;8.20;44.50
31979;DHT22;18502;43.574;1.276;2023-02-28T14:45:30;8.00;44.90
31979;DHT22;18502;43.574;1.276;2023-02-28T14:47:56;7.90;44.80
31979;DHT22;18502;43.574;1.276;2023-02-28T14:50:29;7.90;45.30
31979;DHT22;18502;43.574;1.276;2023-02-28T14:52:56;7.90;44.80
31979;DHT22;18502;43.574;1.276;2023-02-28T14:55:26;7.90;44.30
31979;DHT22;18502;43.574;1.276;2023-02-28T14:57:58;7.60;44.70
31979;DHT22;18502;43.574;1.276;2023-02-28T15:00:29;7.40;44.30
31979;DHT22;18502;43.574;1.276;2023-02-28T15:02:59;6.80;45.00
31979;DHT22;18502;43.574;1.276;2023-02-28T15:05:31;6.90;45.30
31979;DHT22;18502;43.574;1.276;2023-02-28T15:08:03;7.20;45.80
31979;DHT22;18502;43.574;1.276;2023-02-28T15:10:30;7.30;46.10
31979;DHT22;18502;43.574;1.276;2023-02-28T15:15:26;7.00;45.60
31979;DHT22;18502;43.574;1.276;2023-02-28T15:17:55;7.10;46.80
31979;DHT22;18502;43.574;1.276;2023-02-28T15:20:23;7.10;45.30
31979;DHT22;18502;43.574;1.276;2023-02-28T15:22:51;6.80;45.50
31979;DHT22;18502;43.574;1.276;2023-02-28T15:25:22;6.80;46.10
31979;DHT22;18502;43.574;1.276;2023-02-28T15:27:51;6.80;46.60
31979;DHT22;18502;43.574;1.276;2023-02-28T15:30:21;6.90;45.70
31979;DHT22;18502;43.574;1.276;2023-02-28T15:33:29;6.80;45.90
31979;DHT22;18502;43.574;1.276;2023-02-28T15:36:29;6.50;45.80
31979;DHT22;18502;43.574;1.276;2023-02-28T15:38:55;6.70;45.90
31979;DHT22;18502;43.574;1.276;2023-02-28T15:41:29;6.50;46.00
31979;DHT22;18502;43.574;1.276;2023-02-28T15:44:35;6.30;46.70
31979;DHT22;18502;43.574;1.276;2023-02-28T15:49:45;6.30;46.20
31979;DHT22;18502;43.574;1.276;2023-02-28T15:52:20;6.40;47.20
31979;DHT22;18502;43.574;1.276;2023-02-28T15:54:47;6.40;47.90
31979;DHT22;18502;43.574;1.276;2023-02-28T15:57:21;6.30;47.50
31979;DHT22;18502;43.574;1.276;2023-02-28T16:00:00;6.20;47.80
31979;DHT22;18502;43.574;1.276;2023-02-28T16:02:34;6.20;48.30
31979;DHT22;18502;43.574;1.276;2023-02-28T16:07:42;6.20;47.30
31979;DHT22;18502;43.574;1.276;2023-02-28T16:10:11;6.10;48.40
31979;DHT22;18502;43.574;1.276;2023-02-28T16:12:38;6.00;48.80
31979;DHT22;18502;43.574;1.276;2023-02-28T16:15:18;5.90;48.20
31979;DHT22;18502;43.574;1.276;2023-02-28T16:17:44;5.80;47.70
31979;DHT22;18502;43.574;1.276;2023-02-28T16:20:26;5.90;47.50
31979;DHT22;18502;43.574;1.276;2023-02-28T16:22:53;5.70;48.20
31979;DHT22;18502;43.574;1.276;2023-02-28T16:25:21;5.80;48.20
31979;DHT22;18502;43.574;1.276;2023-02-28T16:27:49;5.80;48.10
31979;DHT22;18502;43.574;1.276;2023-02-28T16:30:25;5.80;48.80
31979;DHT22;18502;43.574;1.276;2023-02-28T16:32:53;5.90;48.50
31979;DHT22;18502;43.574;1.276;2023-02-28T16:35:20;5.70;48.20
31979;DHT22;18502;43.574;1.276;2023-02-28T16:37:46;5.90;49.60
31979;DHT22;18502;43.574;1.276;2023-02-28T16:40:16;5.80;48.50
31979;DHT22;18502;43.574;1.276;2023-02-28T16:42:41;5.70;49.50
31979;DHT22;18502;43.574;1.276;2023-02-28T16:45:19;5.80;49.70
31979;DHT22;18502;43.574;1.276;2023-02-28T16:47:46;5.70;49.20
31979;DHT22;18502;43.574;1.276;2023-02-28T16:50:23;5.60;48.90
31979;DHT22;18502;43.574;1.276;2023-02-28T16:52:49;5.60;49.50
31979;DHT22;18502;43.574;1.276;2023-02-28T16:55:18;5.50;48.80
31979;DHT22;18502;43.574;1.276;2023-02-28T16:57:54;5.90;49.50
31979;DHT22;18502;43.574;1.276;2023-02-28T17:00:21;5.80;48.80
31979;DHT22;18502;43.574;1.276;2023-02-28T17:02:47;5.60;48.70
31979;DHT22;18502;43.574;1.276;2023-02-28T17:05:13;5.50;49.00
31979;DHT22;18502;43.574;1.276;2023-02-28T17:07:41;5.40;48.50
31979;DHT22;18502;43.574;1.276;2023-02-28T17:10:25;5.20;49.30
31979;DHT22;18502;43.574;1.276;2023-02-28T17:12:52;5.10;50.00
31979;DHT22;18502;43.574;1.276;2023-02-28T17:15:19;5.00;50.00
31979;DHT22;18502;43.574;1.276;2023-02-28T17:17:46;5.00;50.00
31979;DHT22;18502;43.574;1.276;2023-02-28T17:20:20;5.00;49.70
31979;DHT22;18502;43.574;1.276;2023-02-28T17:22:49;4.90;51.20
31979;DHT22;18502;43.574;1.276;2023-02-28T17:25:14;4.80;51.40
31979;DHT22;18502;43.574;1.276;2023-02-28T17:27:40;4.80;52.20
31979;DHT22;18502;43.574;1.276;2023-02-28T17:30:26;4.80;53.50
31979;DHT22;18502;43.574;1.276;2023-02-28T17:32:56;4.70;54.20
31979;DHT22;18502;43.574;1.276;2023-02-28T17:35:23;4.60;54.60
31979;DHT22;18502;43.574;1.276;2023-02-28T17:37:48;4.50;55.30
31979;DHT22;18502;43.574;1.276;2023-02-28T17:40:17;4.50;55.80
31979;DHT22;18502;43.574;1.276;2023-02-28T17:42:43;4.40;56.20
31979;DHT22;18502;43.574;1.276;2023-02-28T17:45:10;4.40;56.60
31979;DHT22;18502;43.574;1.276;2023-02-28T17:47:36;4.40;57.00
31979;DHT22;18502;43.574;1.276;2023-02-28T17:50:01;4.30;56.70
31979;DHT22;18502;43.574;1.276;2023-02-28T17:52:27;4.30;57.90
31979;DHT22;18502;43.574;1.276;2023-02-28T17:54:54;4.20;57.70
31979;DHT22;18502;43.574;1.276;2023-02-28T17:57:20;4.20;57.80
31979;DHT22;18502;43.574;1.276;2023-02-28T17:59:46;4.20;58.00
31979;DHT22;18502;43.574;1.276;2023-02-28T18:02:13;4.10;58.40
31979;DHT22;18502;43.574;1.276;2023-02-28T18:04:39;4.10;59.10
31979;DHT22;18502;43.574;1.276;2023-02-28T18:07:06;4.10;58.80
31979;DHT22;18502;43.574;1.276;2023-02-28T18:09:31;4.10;59.10
31979;DHT22;18502;43.574;1.276;2023-02-28T18:11:57;4.10;58.60
31979;DHT22;18502;43.574;1.276;2023-02-28T18:14:24;4.00;58.60
31979;DHT22;18502;43.574;1.276;2023-02-28T18:16:52;4.00;58.30
31979;DHT22;18502;43.574;1.276;2023-02-28T18:19:18;4.00;58.60
31979;DHT22;18502;43.574;1.276;2023-02-28T18:21:49;4.00;58.90
31979;DHT22;18502;43.574;1.276;2023-02-28T18:24:16;3.90;59.00
31979;DHT22;18502;43.574;1.276;2023-02-28T18:26:43;3.90;59.40
31979;DHT22;18502;43.574;1.276;2023-02-28T18:29:16;3.90;59.30
31979;DHT22;18502;43.574;1.276;2023-02-28T18:31:42;3.90;59.40